createdAt,value
2018-06-03T00:03:53.111Z,16.40
2018-06-03T00:09:21.265Z,16.40
2018-06-03T00:14:52.163Z,16.30
2018-06-03T00:20:38.201Z,16.20
2018-06-03T00:26:06.341Z,16.20
2018-06-03T00:31:34.497Z,16.10
2018-06-03T00:37:02.636Z,16.00
2018-06-03T00:42:32.492Z,15.90
2018-06-03T00:48:00.631Z,15.90
2018-06-03T00:53:30.013Z,15.80
2018-06-03T00:58:58.152Z,15.80
2018-06-03T01:04:26.304Z,15.70
2018-06-03T01:09:55.208Z,15.70
2018-06-03T01:15:23.359Z,15.60
2018-06-03T01:20:52.269Z,15.60
2018-06-03T01:26:20.418Z,15.60
2018-06-03T01:31:49.315Z,15.50
2018-06-03T01:37:17.460Z,15.50
2018-06-03T01:42:45.623Z,15.50
2018-06-03T01:48:13.802Z,15.40
2018-06-03T01:53:41.957Z,15.40
2018-06-03T01:59:10.200Z,15.40
2018-06-03T02:04:38.471Z,15.30
2018-06-03T02:10:07.383Z,15.30
2018-06-03T02:15:36.458Z,15.20
2018-06-03T02:21:05.357Z,15.20
2018-06-03T02:26:33.541Z,15.10
2018-06-03T02:32:01.672Z,15.10
2018-06-03T02:37:29.823Z,15.10
2018-06-03T02:42:57.994Z,15.00
2018-06-03T02:48:26.142Z,15.00
2018-06-03T02:53:54.318Z,14.90
2018-06-03T02:59:23.220Z,14.90
2018-06-03T03:04:51.385Z,14.80
2018-06-03T03:10:19.571Z,14.80
2018-06-03T03:15:47.718Z,14.70
2018-06-03T03:21:16.644Z,14.60
2018-06-03T03:26:45.565Z,14.60
2018-06-03T03:32:13.808Z,14.50
2018-06-03T03:37:42.761Z,14.50
2018-06-03T03:43:10.921Z,14.50
2018-06-03T03:48:39.087Z,14.60
2018-06-03T03:54:08.049Z,14.60
2018-06-03T03:59:36.187Z,14.70
2018-06-03T04:05:04.365Z,14.80
2018-06-03T04:10:33.268Z,14.90
2018-06-03T04:16:01.405Z,15.00
2018-06-03T04:21:29.557Z,15.20
2018-06-03T04:26:57.745Z,15.30
2018-06-03T04:32:25.887Z,15.50
2018-06-03T04:38:37.037Z,15.80
2018-06-03T04:44:06.431Z,16.00
2018-06-03T04:49:35.624Z,16.20
2018-06-03T04:55:05.082Z,16.40
2018-06-03T05:00:34.355Z,16.70
2018-06-03T05:06:03.552Z,16.90
2018-06-03T05:11:32.793Z,17.10
2018-06-03T05:17:01.986Z,17.40
2018-06-03T05:22:31.264Z,17.60
2018-06-03T05:28:00.597Z,17.90
2018-06-03T05:33:29.780Z,18.10
2018-06-03T05:39:00.279Z,18.30
2018-06-03T05:44:29.483Z,18.60
2018-06-03T05:49:59.051Z,18.80
2018-06-03T05:55:29.375Z,19.10
2018-06-03T06:00:58.701Z,19.30
2018-06-03T06:06:28.117Z,19.50
2018-06-03T06:11:57.370Z,19.70
2018-06-03T06:17:26.795Z,19.80
2018-06-03T06:22:56.980Z,20.10
2018-06-03T06:28:26.495Z,20.40
2018-06-03T06:33:55.823Z,20.60
2018-06-03T06:39:25.029Z,20.90
2018-06-03T06:44:54.338Z,21.10
2018-06-03T06:50:23.552Z,21.40
2018-06-03T06:55:52.864Z,21.40
2018-06-03T07:01:22.217Z,21.60
2018-06-03T07:06:51.945Z,21.80
2018-06-03T07:12:22.005Z,22.00
2018-06-03T07:17:51.442Z,22.10
2018-06-03T07:23:23.463Z,22.30
2018-06-03T07:28:52.719Z,22.50
2018-06-03T07:34:22.962Z,22.60
2018-06-03T07:39:52.151Z,22.70
2018-06-03T07:45:21.480Z,22.90
2018-06-03T07:50:50.676Z,23.00
2018-06-03T07:56:19.915Z,23.20
2018-06-03T08:01:49.260Z,23.40
2018-06-03T08:07:18.672Z,23.50
2018-06-03T08:12:47.933Z,23.60
2018-06-03T08:18:17.319Z,23.40
2018-06-03T08:23:46.624Z,23.50
2018-06-03T08:29:16.655Z,23.50
2018-06-03T08:34:46.145Z,23.60
2018-06-03T08:40:16.129Z,23.70
2018-06-03T08:45:46.391Z,24.10
2018-06-03T08:51:16.017Z,24.30
2018-06-03T08:56:45.509Z,24.60
2018-06-03T09:02:15.168Z,24.90
2018-06-03T09:07:47.724Z,24.90
2018-06-03T09:13:19.155Z,24.70
2018-06-03T09:18:48.502Z,25.10
2018-06-03T09:24:17.911Z,25.10
2018-06-03T09:29:47.276Z,25.50
2018-06-03T09:35:16.526Z,25.80
2018-06-03T09:41:16.983Z,25.90
2018-06-03T09:46:46.386Z,26.00
2018-06-03T09:52:15.977Z,26.30
2018-06-03T09:57:45.265Z,26.50
2018-06-03T10:03:14.731Z,26.40
2018-06-03T10:08:44.092Z,26.70
2018-06-03T10:14:13.519Z,27.00
2018-06-03T10:19:42.981Z,26.60
2018-06-03T10:25:12.389Z,27.00
2018-06-03T10:30:41.941Z,27.30
2018-06-03T10:36:11.394Z,26.80
2018-06-03T10:41:41.181Z,26.60
2018-06-03T10:47:12.959Z,27.10
2018-06-03T10:52:42.511Z,27.60
2018-06-03T10:58:11.957Z,27.20
2018-06-03T11:03:41.558Z,27.10
2018-06-03T11:09:11.292Z,27.20
2018-06-03T11:14:40.645Z,26.70
2018-06-03T11:20:12.933Z,26.20
2018-06-03T11:25:42.854Z,25.90
2018-06-03T11:31:12.259Z,26.10
2018-06-03T11:36:41.518Z,26.50
2018-06-03T11:42:11.208Z,26.90
2018-06-03T11:47:40.621Z,27.10
2018-06-03T11:53:10.037Z,26.50
2018-06-03T11:58:56.444Z,26.10
2018-06-03T12:04:25.665Z,26.10
2018-06-03T12:09:54.860Z,26.50
2018-06-03T12:15:24.213Z,26.90
2018-06-03T12:20:53.416Z,27.20
2018-06-03T12:26:22.601Z,27.30
2018-06-03T12:31:51.902Z,27.40
2018-06-03T12:37:21.119Z,27.20
2018-06-03T12:42:50.468Z,26.90
2018-06-03T12:48:19.786Z,27.20
2018-06-03T12:53:49.153Z,27.40
2018-06-03T12:59:18.612Z,27.60
2018-06-03T13:04:47.996Z,27.30
2018-06-03T13:10:17.449Z,27.60
2018-06-03T13:15:46.869Z,27.80
2018-06-03T13:21:16.263Z,28.00
2018-06-03T13:26:45.588Z,28.20
2018-06-03T13:32:15.058Z,28.10
2018-06-03T13:37:44.375Z,28.20
2018-06-03T13:43:13.871Z,27.90
2018-06-03T13:48:44.203Z,27.90
2018-06-03T13:54:13.563Z,27.70
2018-06-03T13:59:42.889Z,27.60
2018-06-03T14:05:12.347Z,27.70
2018-06-03T14:10:41.831Z,27.80
2018-06-03T14:16:12.943Z,27.90
2018-06-03T14:21:42.248Z,28.00
2018-06-03T14:27:11.622Z,27.90
2018-06-03T14:32:41.095Z,27.90
2018-06-03T14:38:11.840Z,27.70
2018-06-03T14:44:42.997Z,27.80
2018-06-03T14:50:13.126Z,27.80
2018-06-03T14:55:43.096Z,27.90
2018-06-03T15:01:12.721Z,27.70
2018-06-03T15:06:42.923Z,27.50
2018-06-03T15:12:12.413Z,27.30
2018-06-03T15:17:43.078Z,27.20
2018-06-03T15:23:14.230Z,27.10
2018-06-03T15:28:43.876Z,26.90
2018-06-03T15:34:13.354Z,27.00
2018-06-03T15:39:43.007Z,26.90
2018-06-03T15:45:16.567Z,27.00
2018-06-03T15:50:51.900Z,27.20
2018-06-03T15:56:22.378Z,27.10
2018-06-03T16:01:51.716Z,26.90
2018-06-03T16:07:21.060Z,26.60
2018-06-03T16:12:50.353Z,26.40
2018-06-03T16:18:19.704Z,26.20
2018-06-03T16:23:49.341Z,26.10
2018-06-03T16:29:18.674Z,25.90
2018-06-03T16:34:48.025Z,25.80
2018-06-03T16:40:17.399Z,25.70
2018-06-03T16:45:48.064Z,25.60
2018-06-03T16:51:18.440Z,25.50
2018-06-03T16:56:47.993Z,25.40
2018-06-03T17:02:17.366Z,25.40
2018-06-03T17:07:47.125Z,25.30
2018-06-03T17:13:16.569Z,25.20
2018-06-03T17:18:45.974Z,25.30
2018-06-03T17:24:16.693Z,25.20
2018-06-03T17:29:46.132Z,25.20
2018-06-03T17:35:15.977Z,25.20
2018-06-03T17:40:45.793Z,25.20
2018-06-03T17:46:17.726Z,25.20
2018-06-03T17:51:47.662Z,25.10
2018-06-03T17:57:17.103Z,25.00
2018-06-03T18:02:46.592Z,24.90
2018-06-03T18:08:20.934Z,24.80
2018-06-03T18:13:50.865Z,24.70
2018-06-03T18:19:22.131Z,24.60
2018-06-03T18:24:51.665Z,24.50
2018-06-03T18:30:24.105Z,24.40
2018-06-03T18:35:53.659Z,24.20
2018-06-03T18:41:23.225Z,24.10
2018-06-03T18:46:52.821Z,24.00
2018-06-03T18:52:23.153Z,23.90
2018-06-03T18:57:52.780Z,23.70
2018-06-03T19:03:22.149Z,23.50
2018-06-03T19:08:51.945Z,23.40
2018-06-03T19:14:21.387Z,23.30
2018-06-03T19:19:51.111Z,23.20
2018-06-03T19:25:20.490Z,23.00
2018-06-03T19:30:51.229Z,22.80
2018-06-03T19:36:21.077Z,22.70
2018-06-03T19:41:50.527Z,22.60
2018-06-03T19:47:19.920Z,22.40
2018-06-03T19:52:49.377Z,22.30
2018-06-03T19:58:18.765Z,22.20
2018-06-03T20:03:48.113Z,22.10
2018-06-03T20:09:17.475Z,21.90
2018-06-03T20:14:46.801Z,21.80
2018-06-03T20:20:16.140Z,21.70
2018-06-03T20:25:45.611Z,21.50
2018-06-03T20:31:15.746Z,21.40
2018-06-03T20:36:46.207Z,21.30
2018-06-03T20:42:15.515Z,21.20
2018-06-03T20:47:45.305Z,21.10
2018-06-03T20:53:15.172Z,21.00
2018-06-03T20:58:44.856Z,20.90
2018-06-03T21:04:14.168Z,20.80
2018-06-03T21:09:43.595Z,20.70
2018-06-03T21:15:13.214Z,20.60
2018-06-03T21:20:42.731Z,20.50
2018-06-03T21:26:12.204Z,20.40
2018-06-03T21:31:41.739Z,20.30
2018-06-03T21:37:11.069Z,20.20
2018-06-03T21:42:40.102Z,20.10
2018-06-03T21:48:09.468Z,20.00
2018-06-03T21:53:38.816Z,20.00
2018-06-03T21:59:08.252Z,19.90
2018-06-03T22:04:37.577Z,19.80
2018-06-03T22:10:06.807Z,19.70
2018-06-03T22:15:36.248Z,19.60
2018-06-03T22:21:05.462Z,19.40
2018-06-03T22:26:34.749Z,19.80
2018-06-03T22:32:04.061Z,19.40
2018-06-03T22:37:33.274Z,19.20
2018-06-03T22:43:02.520Z,19.00
2018-06-03T22:48:31.727Z,18.80
2018-06-03T22:54:01.945Z,18.70
2018-06-03T22:59:31.154Z,18.50
2018-06-03T23:05:00.376Z,18.30
2018-06-03T23:10:29.598Z,18.20
2018-06-03T23:15:58.897Z,18.10
2018-06-03T23:21:28.076Z,18.00
2018-06-03T23:26:57.288Z,17.90
2018-06-03T23:32:26.585Z,17.80
2018-06-03T23:37:56.824Z,17.70
2018-06-03T23:43:26.105Z,17.60
2018-06-03T23:48:55.356Z,17.50
2018-06-03T23:54:24.553Z,17.40
2018-06-03T23:59:53.818Z,17.30
